sensor_id;sensor_type;location;lat;lon;timestamp;temperature;humidity
35962;DHT22;22044;48.298;10.008;2023-11-22T18:29:47;2.60;99.90
35962;DHT22;22044;48.298;10.008;2023-11-22T18:32:33;2.60;99.90
35962;DHT22;22044;48.298;10.008;2023-11-22T18:40:34;2.70;99.90
35962;DHT22;22044;48.298;10.008;2023-11-22T18:43:20;2.70;99.90
35962;DHT22;22044;48.298;10.008;2023-11-22T18:46:09;2.70;99.90
35962;DHT22;22044;48.298;10.008;2023-11-22T18:48:54;2.70;99.90
35962;DHT22;22044;48.298;10.008;2023-11-22T18:51:41;2.60;99.90
35962;DHT22;22044;48.298;10.008;2023-11-22T18:54:27;2.60;99.90
35962;DHT22;22044;48.298;10.008;2023-11-22T18:57:12;2.60;99.90
35962;DHT22;22044;48.298;10.008;2023-11-22T18:59:59;2.50;99.90
35962;DHT22;22044;48.298;10.008;2023-11-22T19:02:48;2.50;99.90
35962;DHT22;22044;48.298;10.008;2023-11-22T19:05:33;2.50;99.90
35962;DHT22;22044;48.298;10.008;2023-11-22T19:08:19;2.50;99.90
35962;DHT22;22044;48.298;10.008;2023-11-22T19:11:05;2.50;99.90
35962;DHT22;22044;48.298;10.008;2023-11-22T19:13:51;2.50;99.90
35962;DHT22;22044;48.298;10.008;2023-11-22T19:16:38;2.50;99.90
35962;DHT22;22044;48.298;10.008;2023-11-22T19:19:26;2.50;99.90
35962;DHT22;22044;48.298;10.008;2023-11-22T19:22:12;2.50;99.90
35962;DHT22;22044;48.298;10.008;2023-11-22T19:24:58;2.50;99.90
35962;DHT22;22044;48.298;10.008;2023-11-22T19:27:44;2.20;99.90
35962;DHT22;22044;48.298;10.008;2023-11-22T19:30:31;2.20;99.90
35962;DHT22;22044;48.298;10.008;2023-11-22T19:33:18;2.20;99.90
35962;DHT22;22044;48.298;10.008;2023-11-22T19:36:05;2.30;99.90
35962;DHT22;22044;48.298;10.008;2023-11-22T19:38:51;2.30;99.90
35962;DHT22;22044;48.298;10.008;2023-11-22T19:41:37;2.30;99.90
35962;DHT22;22044;48.298;10.008;2023-11-22T19:44:24;2.40;99.90
35962;DHT22;22044;48.298;10.008;2023-11-22T19:47:10;2.40;99.90
35962;DHT22;22044;48.298;10.008;2023-11-22T19:49:56;2.40;99.90
35962;DHT22;22044;48.298;10.008;2023-11-22T19:52:43;2.40;99.90
35962;DHT22;22044;48.298;10.008;2023-11-22T19:55:29;2.40;99.90
35962;DHT22;22044;48.298;10.008;2023-11-22T19:58:15;2.40;99.90
35962;DHT22;22044;48.298;10.008;2023-11-22T20:01:01;2.30;99.90
35962;DHT22;22044;48.298;10.008;2023-11-22T20:03:46;2.30;99.90
35962;DHT22;22044;48.298;10.008;2023-11-22T20:06:32;2.30;99.90
35962;DHT22;22044;48.298;10.008;2023-11-22T20:09:20;2.30;99.90
35962;DHT22;22044;48.298;10.008;2023-11-22T20:12:06;2.30;99.90
35962;DHT22;22044;48.298;10.008;2023-11-22T20:14:51;2.30;99.90
35962;DHT22;22044;48.298;10.008;2023-11-22T20:17:37;2.40;99.90
35962;DHT22;22044;48.298;10.008;2023-11-22T20:20:24;2.30;99.90
35962;DHT22;22044;48.298;10.008;2023-11-22T20:23:12;2.40;99.90
35962;DHT22;22044;48.298;10.008;2023-11-22T20:26:03;2.40;99.90
35962;DHT22;22044;48.298;10.008;2023-11-22T20:28:48;2.40;99.90
35962;DHT22;22044;48.298;10.008;2023-11-22T20:31:34;2.40;99.90
35962;DHT22;22044;48.298;10.008;2023-11-22T20:34:20;2.40;99.90
35962;DHT22;22044;48.298;10.008;2023-11-22T20:37:07;2.30;99.90
35962;DHT22;22044;48.298;10.008;2023-11-22T20:39:52;2.40;99.90
35962;DHT22;22044;48.298;10.008;2023-11-22T20:42:39;2.40;99.90
35962;DHT22;22044;48.298;10.008;2023-11-22T20:45:25;2.50;99.90
35962;DHT22;22044;48.298;10.008;2023-11-22T20:48:10;2.50;99.90
35962;DHT22;22044;48.298;10.008;2023-11-22T20:50:56;2.50;99.90
35962;DHT22;22044;48.298;10.008;2023-11-22T20:53:41;2.40;99.90
35962;DHT22;22044;48.298;10.008;2023-11-22T21:00:44;2.30;99.90
35962;DHT22;22044;48.298;10.008;2023-11-22T21:09:05;2.40;99.90
35962;DHT22;22044;48.298;10.008;2023-11-22T21:11:54;2.40;99.90
35962;DHT22;22044;48.298;10.008;2023-11-22T21:14:40;2.30;99.90
35962;DHT22;22044;48.298;10.008;2023-11-22T21:17:27;2.30;99.90
35962;DHT22;22044;48.298;10.008;2023-11-22T21:20:14;2.30;99.90
35962;DHT22;22044;48.298;10.008;2023-11-22T21:23:02;2.30;99.90
35962;DHT22;22044;48.298;10.008;2023-11-22T21:25:48;2.20;99.90
35962;DHT22;22044;48.298;10.008;2023-11-22T21:28:34;2.20;99.90
35962;DHT22;22044;48.298;10.008;2023-11-22T21:31:20;2.20;99.90
35962;DHT22;22044;48.298;10.008;2023-11-22T21:34:08;2.20;99.90
35962;DHT22;22044;48.298;10.008;2023-11-22T21:36:55;2.30;99.90
35962;DHT22;22044;48.298;10.008;2023-11-22T21:39:41;2.30;99.90
35962;DHT22;22044;48.298;10.008;2023-11-22T21:42:27;2.20;99.90
35962;DHT22;22044;48.298;10.008;2023-11-22T21:45:13;2.20;99.90
35962;DHT22;22044;48.298;10.008;2023-11-22T21:48:00;2.20;99.90
35962;DHT22;22044;48.298;10.008;2023-11-22T21:50:48;2.20;99.90
35962;DHT22;22044;48.298;10.008;2023-11-22T21:53:33;2.20;99.90
35962;DHT22;22044;48.298;10.008;2023-11-22T21:56:20;2.20;99.90
35962;DHT22;22044;48.298;10.008;2023-11-22T21:59:22;2.30;99.90
35962;DHT22;22044;48.298;10.008;2023-11-22T22:02:09;2.30;99.90
35962;DHT22;22044;48.298;10.008;2023-11-22T22:04:54;2.30;99.90
35962;DHT22;22044;48.298;10.008;2023-11-22T22:07:41;2.30;99.90
35962;DHT22;22044;48.298;10.008;2023-11-22T22:10:29;2.20;99.90
35962;DHT22;22044;48.298;10.008;2023-11-22T22:13:17;2.20;99.90
35962;DHT22;22044;48.298;10.008;2023-11-22T22:16:07;2.10;99.90
35962;DHT22;22044;48.298;10.008;2023-11-22T22:18:54;2.20;99.90
35962;DHT22;22044;48.298;10.008;2023-11-22T22:21:39;2.20;99.90
35962;DHT22;22044;48.298;10.008;2023-11-22T22:24:26;2.20;99.90
35962;DHT22;22044;48.298;10.008;2023-11-22T22:27:14;2.20;99.90
35962;DHT22;22044;48.298;10.008;2023-11-22T22:30:03;2.20;99.90
35962;DHT22;22044;48.298;10.008;2023-11-22T22:32:48;2.20;99.90
35962;DHT22;22044;48.298;10.008;2023-11-22T22:35:34;2.10;99.90
35962;DHT22;22044;48.298;10.008;2023-11-22T22:38:20;1.90;99.90
35962;DHT22;22044;48.298;10.008;2023-11-22T22:41:07;2.00;99.90
35962;DHT22;22044;48.298;10.008;2023-11-22T22:43:54;2.10;99.90
35962;DHT22;22044;48.298;10.008;2023-11-22T22:46:40;1.70;99.90
35962;DHT22;22044;48.298;10.008;2023-11-22T22:49:26;1.50;99.90
35962;DHT22;22044;48.298;10.008;2023-11-22T22:52:12;1.50;99.90
35962;DHT22;22044;48.298;10.008;2023-11-22T22:54:58;1.40;99.90
35962;DHT22;22044;48.298;10.008;2023-11-22T22:57:45;1.50;99.90
35962;DHT22;22044;48.298;10.008;2023-11-22T23:00:30;1.40;99.90
35962;DHT22;22044;48.298;10.008;2023-11-22T23:03:22;1.40;99.90
35962;DHT22;22044;48.298;10.008;2023-11-22T23:06:08;1.40;99.90
35962;DHT22;22044;48.298;10.008;2023-11-22T23:08:54;1.40;99.90
35962;DHT22;22044;48.298;10.008;2023-11-22T23:11:40;1.40;99.90
35962;DHT22;22044;48.298;10.008;2023-11-22T23:14:28;1.60;99.90
35962;DHT22;22044;48.298;10.008;2023-11-22T23:17:13;1.60;99.90
35962;DHT22;22044;48.298;10.008;2023-11-22T23:19:59;1.70;99.90
35962;DHT22;22044;48.298;10.008;2023-11-22T23:22:45;1.70;99.90
35962;DHT22;22044;48.298;10.008;2023-11-22T23:25:32;1.60;99.90
35962;DHT22;22044;48.298;10.008;2023-11-22T23:28:18;1.70;99.90
35962;DHT22;22044;48.298;10.008;2023-11-22T23:31:05;1.60;99.90
35962;DHT22;22044;48.298;10.008;2023-11-22T23:33:51;1.60;99.90
35962;DHT22;22044;48.298;10.008;2023-11-22T23:36:38;1.50;99.90
35962;DHT22;22044;48.298;10.008;2023-11-22T23:39:27;1.50;99.90
35962;DHT22;22044;48.298;10.008;2023-11-22T23:42:13;1.40;99.90
35962;DHT22;22044;48.298;10.008;2023-11-22T23:44:58;1.60;99.90
35962;DHT22;22044;48.298;10.008;2023-11-22T23:47:45;1.60;99.90
35962;DHT22;22044;48.298;10.008;2023-11-22T23:50:34;1.70;99.90
35962;DHT22;22044;48.298;10.008;2023-11-22T23:53:22;1.80;99.90
35962;DHT22;22044;48.298;10.008;2023-11-22T23:56:08;1.90;99.90
35962;DHT22;22044;48.298;10.008;2023-11-22T23:58:55;1.90;99.90
